Time;durP1;ratioP1;P1;durP2;ratioP2;P2;SDS_P1;SDS_P2;PMS_P1;PMS_P2;Temp;Humidity;BMP_temperature;BMP_pressure;BME280_temperature;BME280_humidity;BME280_pressure;Samples;Min_cycle;Max_cycle;Signal;HPM_P1;HPM_P2
2022/12/23 00:01:21;;;;;;;;;;;;;;;11.63;54.00;99286.25;4353297;32;33992;-65
2022/12/23 00:03:49;;;;;;;;;;;;;;;11.45;54.77;99273.59;4353092;32;33746;-65
2022/12/23 00:06:17;;;;;;;;;;;;;;;11.70;53.88;99275.84;4352013;32;31979;-65
2022/12/23 00:08:45;;;;;;;;;;;;;;;11.83;53.38;99276.47;4352376;32;33793;-64
2022/12/23 00:11:15;;;;;;;;;;;;;;;11.81;53.40;99275.78;4347792;32;34708;-65
2022/12/23 00:16:28;;;;;;;;;;;;;;;11.80;53.88;99279.41;4355127;32;34364;-65
2022/12/23 00:18:55;;;;;;;;;;;;;;;11.43;54.92;99277.25;4353797;32;33264;-65
2022/12/23 00:21:22;;;;;;;;;;;;;;;11.72;54.21;99273.00;4355862;32;34156;-64
2022/12/23 00:23:50;;;;;;;;;;;;;;;10.98;56.55;99270.41;4357050;32;34365;-64
2022/12/23 00:26:22;;;;;;;;;;;;;;;11.72;54.66;99263.16;4351316;32;34363;-65
2022/12/23 00:28:49;;;;;;;;;;;;;;;11.90;53.87;99255.34;4353346;32;32805;-69
2022/12/23 00:31:17;;;;;;;;;;;;;;;11.87;54.17;99255.63;4356861;32;34158;-68
2022/12/23 00:33:46;;;;;;;;;;;;;;;12.08;52.96;99248.38;4356997;32;33983;-63
2022/12/23 00:36:16;;;;;;;;;;;;;;;11.99;53.65;99248.34;4354739;32;34218;-64
2022/12/23 00:44:15;;;;;;;;;;;;;;;11.92;53.92;99241.84;4354135;32;34328;-64
2022/12/23 00:46:42;;;;;;;;;;;;;;;11.96;54.02;99240.56;4354535;32;32899;-64
2022/12/23 00:51:57;;;;;;;;;;;;;;;11.95;54.21;99241.56;4356874;32;33900;-64
2022/12/23 00:54:24;;;;;;;;;;;;;;;12.08;53.80;99245.69;4356671;32;34145;-64
2022/12/23 00:56:51;;;;;;;;;;;;;;;12.06;53.50;99250.34;4352899;32;34359;-64
2022/12/23 00:59:19;;;;;;;;;;;;;;;11.94;53.98;99250.56;4355477;32;32779;-64
2022/12/23 01:07:18;;;;;;;;;;;;;;;12.01;53.72;99249.91;4357264;32;33035;-64
2022/12/23 01:09:46;;;;;;;;;;;;;;;12.03;53.64;99239.03;4357842;32;34095;-64
2022/12/23 01:12:13;;;;;;;;;;;;;;;12.04;53.63;99240.75;4357211;32;33765;-65
2022/12/23 01:14:40;;;;;;;;;;;;;;;11.78;54.41;99241.19;4356779;32;34184;-64
2022/12/23 01:17:08;;;;;;;;;;;;;;;11.94;53.83;99248.75;4357794;32;34516;-64
2022/12/23 01:19:35;;;;;;;;;;;;;;;11.89;54.26;99237.59;4357122;32;34219;-65
2022/12/23 01:22:02;;;;;;;;;;;;;;;11.94;54.16;99223.75;4357312;32;33382;-64
2022/12/23 01:24:30;;;;;;;;;;;;;;;11.80;54.56;99223.09;4358473;32;34357;-64
2022/12/23 01:26:58;;;;;;;;;;;;;;;11.76;54.94;99216.34;4357272;32;34416;-64
2022/12/23 01:29:25;;;;;;;;;;;;;;;11.97;54.34;99216.28;4356102;32;33643;-65
2022/12/23 01:31:53;;;;;;;;;;;;;;;12.05;54.07;99223.66;4350017;32;33767;-65
2022/12/23 01:34:20;;;;;;;;;;;;;;;12.00;54.33;99225.88;4355846;32;34543;-65
2022/12/23 01:36:47;;;;;;;;;;;;;;;11.96;54.43;99219.97;4357477;32;33888;-64
2022/12/23 01:39:15;;;;;;;;;;;;;;;11.82;54.72;99210.44;4359590;32;33463;-65
2022/12/23 01:44:47;;;;;;;;;;;;;;;12.05;54.33;99205.72;4358362;32;33040;-65
2022/12/23 01:47:33;;;;;;;;;;;;;;;11.91;54.55;99202.56;4355620;32;32606;-65
2022/12/23 01:50:03;;;;;;;;;;;;;;;12.14;53.66;99198.69;4356935;32;33642;-64
2022/12/23 01:52:30;;;;;;;;;;;;;;;11.91;54.33;99187.34;4341906;32;34174;-65
2022/12/23 01:54:58;;;;;;;;;;;;;;;11.91;54.16;99192.72;4359654;32;34394;-64
2022/12/23 01:57:25;;;;;;;;;;;;;;;11.86;54.34;99193.09;4353080;32;34430;-66
2022/12/23 02:05:25;;;;;;;;;;;;;;;11.88;54.28;99172.38;4360749;32;34901;-65
2022/12/23 02:11:01;;;;;;;;;;;;;;;11.96;53.81;99174.38;4356000;32;34467;-66
2022/12/23 02:13:31;;;;;;;;;;;;;;;11.70;54.40;99171.28;4350268;32;35211;-65
2022/12/23 02:16:17;;;;;;;;;;;;;;;11.55;54.54;99160.06;4354928;32;33019;-65
2022/12/23 02:18:47;;;;;;;;;;;;;;;11.85;53.59;99174.50;4343843;32;33344;-65
2022/12/23 02:21:23;;;;;;;;;;;;;;;11.80;53.45;99168.63;4357452;32;32379;-66
2022/12/23 02:23:56;;;;;;;;;;;;;;;11.21;55.63;99162.19;4358477;32;33705;-65
2022/12/23 02:26:23;;;;;;;;;;;;;;;11.57;54.32;99162.66;4319703;32;799956;-65
2022/12/23 02:29:00;;;;;;;;;;;;;;;11.57;54.22;99165.31;4357006;32;35444;-65
2022/12/23 02:31:46;;;;;;;;;;;;;;;11.59;54.04;99160.69;4351811;32;33683;-65
2022/12/23 02:34:26;;;;;;;;;;;;;;;11.37;54.68;99159.88;4361414;32;33151;-66
2022/12/23 02:36:54;;;;;;;;;;;;;;;11.29;54.99;99164.19;4348653;32;34327;-66
2022/12/23 02:39:50;;;;;;;;;;;;;;;11.22;55.14;99174.59;4356815;32;34138;-66
2022/12/23 02:42:31;;;;;;;;;;;;;;;11.12;55.15;99177.22;4339929;32;33137;-66
2022/12/23 02:44:58;;;;;;;;;;;;;;;10.42;56.48;99178.69;4351030;32;33968;-66
2022/12/23 02:47:33;;;;;;;;;;;;;;;9.62;59.09;99180.78;4356391;32;32514;-65
2022/12/23 02:50:02;;;;;;;;;;;;;;;9.09;60.73;99178.69;4353627;32;34415;-65
2022/12/23 02:52:30;;;;;;;;;;;;;;;8.74;62.08;99181.41;4357805;32;32070;-65
2022/12/23 02:54:59;;;;;;;;;;;;;;;8.63;62.66;99188.41;4341078;32;33843;-65
2022/12/23 02:57:28;;;;;;;;;;;;;;;8.07;64.78;99189.94;4342819;32;33790;-65
2022/12/23 02:59:56;;;;;;;;;;;;;;;8.45;63.87;99187.13;4345523;32;34906;-65
2022/12/23 03:02:23;;;;;;;;;;;;;;;8.82;62.28;99182.50;4349089;32;33273;-66
2022/12/23 03:04:50;;;;;;;;;;;;;;;9.15;61.44;99180.91;4356628;32;34093;-65
2022/12/23 03:07:32;;;;;;;;;;;;;;;8.99;61.88;99172.34;4355103;32;35010;-65
2022/12/23 03:10:03;;;;;;;;;;;;;;;9.30;60.78;99185.00;4345554;32;34571;-65
2022/12/23 03:12:51;;;;;;;;;;;;;;;8.06;64.85;99183.75;4343455;32;32940;-65
2022/12/23 03:15:23;;;;;;;;;;;;;;;7.69;66.71;99172.22;4355230;32;32545;-66
2022/12/23 03:17:56;;;;;;;;;;;;;;;8.28;65.08;99174.16;4352271;32;34180;-65
2022/12/23 03:20:43;;;;;;;;;;;;;;;8.83;63.37;99172.69;4341560;32;32935;-65
2022/12/23 03:23:17;;;;;;;;;;;;;;;8.96;62.81;99170.78;4342224;32;33490;-65
2022/12/23 03:25:51;;;;;;;;;;;;;;;8.48;64.55;99173.56;4357512;32;34190;-63
2022/12/23 03:28:20;;;;;;;;;;;;;;;7.41;68.61;99176.84;4340059;32;33001;-63
2022/12/23 03:30:49;;;;;;;;;;;;;;;7.62;68.69;99176.31;4335356;32;34414;-63
2022/12/23 03:33:23;;;;;;;;;;;;;;;8.66;65.28;99175.78;4339627;33;33532;-73
2022/12/23 03:35:52;;;;;;;;;;;;;;;8.18;65.75;99168.66;4351922;32;33868;-64
2022/12/23 03:38:19;;;;;;;;;;;;;;;8.59;64.69;99170.91;4336456;33;34261;-62
2022/12/23 03:40:48;;;;;;;;;;;;;;;9.09;63.70;99171.53;4312203;33;33540;-64
2022/12/23 03:43:21;;;;;;;;;;;;;;;9.64;61.80;99168.16;4348099;32;33841;-63
2022/12/23 03:45:49;;;;;;;;;;;;;;;8.91;63.97;99164.94;4333048;33;33894;-62
2022/12/23 03:48:18;;;;;;;;;;;;;;;9.66;61.35;99176.88;4333363;33;32827;-62
2022/12/23 03:50:46;;;;;;;;;;;;;;;9.90;60.52;99174.06;4348789;32;32527;-63
2022/12/23 03:53:15;;;;;;;;;;;;;;;9.73;60.84;99172.75;4351846;32;33557;-63
2022/12/23 03:55:48;;;;;;;;;;;;;;;10.00;60.06;99169.66;4328708;33;33158;-64
2022/12/23 03:58:23;;;;;;;;;;;;;;;9.37;61.03;99174.69;4332890;33;35094;-63
2022/12/23 04:00:56;;;;;;;;;;;;;;;10.01;60.02;99171.34;4329635;33;34465;-64
2022/12/23 04:03:23;;;;;;;;;;;;;;;10.23;59.28;99163.28;4332957;33;32782;-63
2022/12/23 04:05:55;;;;;;;;;;;;;;;8.59;63.57;99162.06;4335126;33;33934;-63
2022/12/23 04:08:24;;;;;;;;;;;;;;;10.10;59.54;99156.41;4340364;33;35503;-64
2022/12/23 04:10:51;;;;;;;;;;;;;;;10.23;58.91;99154.41;4340348;33;35019;-63
2022/12/23 04:13:19;;;;;;;;;;;;;;;10.47;58.04;99148.88;4331909;33;32205;-63
2022/12/23 04:15:46;;;;;;;;;;;;;;;9.61;60.43;99150.53;4334746;33;33009;-63
2022/12/23 04:18:15;;;;;;;;;;;;;;;9.91;59.07;99149.88;4349553;32;34405;-63
2022/12/23 04:20:42;;;;;;;;;;;;;;;8.28;64.29;99150.16;4328575;33;35268;-64
2022/12/23 04:23:09;;;;;;;;;;;;;;;9.82;59.27;99158.62;4326199;33;33457;-64
2022/12/23 04:25:37;;;;;;;;;;;;;;;10.05;57.82;99154.13;4335957;33;34573;-63
2022/12/23 04:28:04;;;;;;;;;;;;;;;9.31;59.81;99165.38;4328361;33;34689;-63
2022/12/23 04:30:31;;;;;;;;;;;;;;;8.14;63.81;99159.19;4336712;33;34475;-63
2022/12/23 04:33:02;;;;;;;;;;;;;;;8.29;63.01;99155.37;4341808;33;33456;-63
2022/12/23 04:35:29;;;;;;;;;;;;;;;7.92;65.41;99158.09;4335260;33;33487;-63
2022/12/23 04:37:56;;;;;;;;;;;;;;;9.10;61.44;99167.03;4331085;33;34254;-64
2022/12/23 04:40:23;;;;;;;;;;;;;;;9.37;60.17;99174.69;4330312;33;33495;-63
2022/12/23 04:42:51;;;;;;;;;;;;;;;9.17;60.06;99176.25;4330296;33;33026;-64
2022/12/23 04:45:18;;;;;;;;;;;;;;;9.28;59.49;99172.78;4334004;33;33868;-64
2022/12/23 04:47:45;;;;;;;;;;;;;;;8.37;61.29;99168.97;4328731;33;34662;-63
2022/12/23 04:50:13;;;;;;;;;;;;;;;8.34;61.53;99169.19;4329343;33;33858;-63
2022/12/23 04:52:41;;;;;;;;;;;;;;;7.77;63.48;99180.53;4327521;33;33470;-64
2022/12/23 04:55:09;;;;;;;;;;;;;;;7.52;63.57;99184.09;4322907;33;34279;-64
2022/12/23 04:57:36;;;;;;;;;;;;;;;8.06;62.82;99175.75;4328725;33;35234;-63
2022/12/23 05:00:04;;;;;;;;;;;;;;;7.88;62.17;99164.59;4332122;33;34273;-64
2022/12/23 05:02:31;;;;;;;;;;;;;;;7.96;62.81;99156.06;4340232;33;34261;-64
2022/12/23 05:04:58;;;;;;;;;;;;;;;7.86;63.19;99150.53;4332211;33;34238;-64
2022/12/23 05:07:26;;;;;;;;;;;;;;;8.68;60.61;99153.38;4337670;33;34085;-64
2022/12/23 05:09:53;;;;;;;;;;;;;;;8.99;60.02;99159.88;4328648;33;34934;-64
2022/12/23 05:12:20;;;;;;;;;;;;;;;9.37;58.94;99155.16;4329331;33;33900;-64
2022/12/23 05:14:47;;;;;;;;;;;;;;;9.63;57.97;99155.75;4329308;33;34851;-64
2022/12/23 05:17:15;;;;;;;;;;;;;;;9.72;57.76;99152.34;4333009;33;34371;-64
2022/12/23 05:19:42;;;;;;;;;;;;;;;9.75;57.81;99152.09;4340819;33;34800;-64
2022/12/23 05:22:09;;;;;;;;;;;;;;;9.55;57.96;99154.53;4333243;33;34205;-64
2022/12/23 05:24:37;;;;;;;;;;;;;;;10.00;56.53;99159.81;4331477;33;32828;-64
2022/12/23 05:27:04;;;;;;;;;;;;;;;10.04;56.27;99163.94;4329321;33;34218;-64
2022/12/23 05:29:31;;;;;;;;;;;;;;;10.11;56.12;99150.06;4319890;33;34126;-64
2022/12/23 05:31:59;;;;;;;;;;;;;;;10.13;56.16;99140.94;4353852;32;33274;-64
2022/12/23 05:34:26;;;;;;;;;;;;;;;10.12;55.92;99141.94;4350047;32;34089;-64
2022/12/23 05:36:53;;;;;;;;;;;;;;;9.96;56.35;99157.53;4359981;32;32084;-64
2022/12/23 05:39:21;;;;;;;;;;;;;;;9.35;57.58;99168.63;4359539;32;33945;-64
2022/12/23 05:41:48;;;;;;;;;;;;;;;9.75;56.14;99181.50;4354287;32;34375;-64
2022/12/23 05:44:15;;;;;;;;;;;;;;;9.74;55.96;99186.00;4356922;32;35096;-64
2022/12/23 05:46:43;;;;;;;;;;;;;;;9.62;56.44;99183.44;4356634;32;34110;-64
2022/12/23 05:49:10;;;;;;;;;;;;;;;9.45;56.94;99182.12;4358166;32;34345;-64
2022/12/23 05:51:37;;;;;;;;;;;;;;;9.14;57.23;99183.66;4356166;32;33739;-64
2022/12/23 05:54:05;;;;;;;;;;;;;;;8.71;58.52;99178.97;4357638;32;35533;-64
2022/12/23 05:56:32;;;;;;;;;;;;;;;8.72;58.84;99167.31;4358832;32;34285;-64
2022/12/23 05:58:59;;;;;;;;;;;;;;;9.13;57.55;99168.63;4355467;32;34248;-64
2022/12/23 06:01:27;;;;;;;;;;;;;;;9.35;56.76;99162.47;4353439;32;34397;-64
2022/12/23 06:03:55;;;;;;;;;;;;;;;9.56;56.42;99152.72;4356266;32;33774;-64
2022/12/23 06:06:22;;;;;;;;;;;;;;;9.76;55.78;99164.50;4359523;32;34358;-64
2022/12/23 06:08:49;;;;;;;;;;;;;;;8.99;57.28;99167.88;4356358;32;34237;-64
2022/12/23 06:11:25;;;;;;;;;;;;;;;8.99;57.76;99162.53;4354415;32;33394;-63
2022/12/23 06:13:52;;;;;;;;;;;;;;;9.30;56.80;99165.47;4358359;32;34524;-63
2022/12/23 06:16:20;;;;;;;;;;;;;;;9.80;55.49;99169.47;4354366;32;34298;-64
2022/12/23 06:18:47;;;;;;;;;;;;;;;9.78;55.42;99167.88;4355042;32;33808;-64
2022/12/23 06:21:14;;;;;;;;;;;;;;;9.45;56.69;99166.94;4357053;32;32373;-64
2022/12/23 06:23:42;;;;;;;;;;;;;;;8.55;58.13;99161.44;4357343;32;34804;-64
2022/12/23 06:26:09;;;;;;;;;;;;;;;9.18;57.01;99159.28;4340654;32;32732;-64
2022/12/23 06:28:36;;;;;;;;;;;;;;;8.23;59.82;99157.66;4358146;32;34418;-64
2022/12/23 06:31:04;;;;;;;;;;;;;;;8.37;59.70;99142.31;4352258;32;33497;-64
2022/12/23 06:33:31;;;;;;;;;;;;;;;8.50;59.53;99138.75;4357404;32;35062;-64
2022/12/23 06:35:58;;;;;;;;;;;;;;;9.36;57.26;99150.78;4358863;32;35151;-63
2022/12/23 06:38:26;;;;;;;;;;;;;;;9.48;56.61;99150.66;4353676;32;33027;-64
2022/12/23 06:40:53;;;;;;;;;;;;;;;9.83;55.38;99155.00;4356185;32;33290;-63
2022/12/23 06:43:20;;;;;;;;;;;;;;;9.70;55.94;99168.50;4355618;32;34179;-63
2022/12/23 06:45:48;;;;;;;;;;;;;;;9.65;55.72;99176.03;4358914;32;35116;-64
2022/12/23 06:48:16;;;;;;;;;;;;;;;10.05;54.35;99183.53;4357737;32;33956;-64
2022/12/23 06:50:43;;;;;;;;;;;;;;;9.99;54.33;99187.53;4360482;32;31736;-64
2022/12/23 06:53:11;;;;;;;;;;;;;;;9.30;55.83;99206.38;4358127;32;35291;-64
2022/12/23 06:55:38;;;;;;;;;;;;;;;8.89;57.18;99209.56;4354513;32;35556;-64
2022/12/23 06:58:05;;;;;;;;;;;;;;;9.36;55.75;99207.72;4356869;32;34129;-64
2022/12/23 07:00:33;;;;;;;;;;;;;;;9.43;55.98;99216.94;4357484;32;32925;-64
2022/12/23 07:03:00;;;;;;;;;;;;;;;9.60;55.90;99222.78;4359036;32;34008;-64
2022/12/23 07:05:28;;;;;;;;;;;;;;;8.84;57.47;99228.63;4356888;32;33918;-64
2022/12/23 07:08:03;;;;;;;;;;;;;;;8.63;57.97;99236.44;4359004;32;34606;-64
2022/12/23 07:10:30;;;;;;;;;;;;;;;7.91;61.15;99255.00;4356016;32;33668;-64
2022/12/23 07:12:58;;;;;;;;;;;;;;;7.97;60.71;99232.38;4359449;32;34307;-65
2022/12/23 07:15:25;;;;;;;;;;;;;;;7.54;61.37;99243.41;4361245;32;34209;-65
2022/12/23 07:17:53;;;;;;;;;;;;;;;8.37;60.15;99232.13;4358812;32;33754;-64
2022/12/23 07:20:20;;;;;;;;;;;;;;;8.82;58.92;99213.69;4351148;32;33379;-64
2022/12/23 07:22:49;;;;;;;;;;;;;;;8.13;59.64;99208.13;4358766;32;34910;-65
2022/12/23 07:25:16;;;;;;;;;;;;;;;8.91;58.00;99196.13;4358277;32;34514;-64
2022/12/23 07:27:43;;;;;;;;;;;;;;;8.83;57.73;99194.91;4343435;32;34239;-65
2022/12/23 07:30:11;;;;;;;;;;;;;;;8.70;58.91;99202.13;4357372;32;34605;-64
2022/12/23 07:32:38;;;;;;;;;;;;;;;9.06;57.65;99202.97;4359745;32;34000;-64
2022/12/23 07:35:05;;;;;;;;;;;;;;;8.40;59.20;99202.59;4359255;32;34533;-64
2022/12/23 07:37:33;;;;;;;;;;;;;;;8.25;60.14;99206.38;4344333;32;32727;-64
2022/12/23 07:40:00;;;;;;;;;;;;;;;9.32;56.49;99198.25;4358931;32;33422;-64
2022/12/23 07:42:35;;;;;;;;;;;;;;;9.15;57.17;99191.56;4358318;32;34074;-64
2022/12/23 07:45:12;;;;;;;;;;;;;;;8.73;58.07;99198.34;4358103;32;34196;-64
2022/12/23 07:47:40;;;;;;;;;;;;;;;9.28;56.71;99194.13;4358890;32;32690;-64
2022/12/23 07:50:07;;;;;;;;;;;;;;;8.79;57.77;99192.56;4356021;32;34487;-64
2022/12/23 07:52:35;;;;;;;;;;;;;;;8.92;56.94;99185.31;4354742;32;31876;-64
2022/12/23 07:55:02;;;;;;;;;;;;;;;9.45;55.69;99185.63;4359269;32;34417;-64
2022/12/23 07:57:36;;;;;;;;;;;;;;;9.03;56.96;99184.50;4355209;32;33576;-63
2022/12/23 08:00:04;;;;;;;;;;;;;;;9.78;54.58;99175.91;4348828;32;31923;-64
2022/12/23 08:02:38;;;;;;;;;;;;;;;9.41;55.92;99173.50;4355853;32;34769;-64
2022/12/23 08:05:06;;;;;;;;;;;;;;;9.60;55.93;99172.03;4353822;32;34000;-64
2022/12/23 08:07:33;;;;;;;;;;;;;;;9.36;56.48;99180.16;4353352;32;34060;-64
2022/12/23 08:10:01;;;;;;;;;;;;;;;9.31;56.71;99180.53;4341087;32;32981;-64
2022/12/23 08:12:28;;;;;;;;;;;;;;;8.38;59.97;99183.22;4357761;32;34356;-64
2022/12/23 08:14:56;;;;;;;;;;;;;;;9.24;57.38;99184.66;4351174;32;34140;-64
2022/12/23 08:17:26;;;;;;;;;;;;;;;8.13;59.84;99171.66;4359137;32;34099;-64
2022/12/23 08:19:54;;;;;;;;;;;;;;;9.29;57.67;99172.63;4359021;32;34085;-65
2022/12/23 08:22:21;;;;;;;;;;;;;;;8.44;59.26;99171.22;4341059;32;32558;-64
2022/12/23 08:24:48;;;;;;;;;;;;;;;9.20;57.64;99161.81;4359096;32;34656;-65
2022/12/23 08:27:16;;;;;;;;;;;;;;;8.80;59.16;99159.59;4350282;32;33580;-65
2022/12/23 08:29:43;;;;;;;;;;;;;;;8.82;58.45;99163.81;4355573;32;33268;-65
2022/12/23 08:32:11;;;;;;;;;;;;;;;9.74;56.20;99172.63;4357577;32;35433;-65
2022/12/23 08:34:38;;;;;;;;;;;;;;;9.71;56.28;99167.53;4356687;32;34339;-65
2022/12/23 08:37:05;;;;;;;;;;;;;;;8.20;59.54;99180.06;4355575;32;34120;-65
2022/12/23 08:39:33;;;;;;;;;;;;;;;8.71;59.07;99170.97;4356208;32;33382;-65
2022/12/23 08:42:00;;;;;;;;;;;;;;;9.33;57.64;99170.56;4353383;32;34082;-65
2022/12/23 08:44:28;;;;;;;;;;;;;;;9.64;56.85;99155.63;4345989;32;32933;-64
2022/12/23 08:46:55;;;;;;;;;;;;;;;9.60;56.73;99154.19;4357015;32;34162;-64
2022/12/23 08:49:23;;;;;;;;;;;;;;;8.65;60.00;99145.59;4359847;32;33297;-65
2022/12/23 08:51:50;;;;;;;;;;;;;;;9.33;58.27;99146.53;4343782;32;32526;-64
2022/12/23 08:54:19;;;;;;;;;;;;;;;8.95;59.61;99154.87;4358310;32;32441;-64
2022/12/23 08:56:46;;;;;;;;;;;;;;;7.93;62.68;99156.31;4355863;32;34102;-65
2022/12/23 08:59:14;;;;;;;;;;;;;;;8.26;61.40;99149.44;4355604;32;33036;-65
2022/12/23 09:01:45;;;;;;;;;;;;;;;7.47;63.87;99144.47;4356461;32;34304;-64
2022/12/23 09:04:13;;;;;;;;;;;;;;;6.89;66.00;99143.25;4355863;32;34946;-64
2022/12/23 09:06:41;;;;;;;;;;;;;;;7.50;64.89;99129.25;4354956;32;34024;-64
2022/12/23 09:09:09;;;;;;;;;;;;;;;8.63;61.32;99131.50;4357424;32;33690;-64
2022/12/23 09:11:36;;;;;;;;;;;;;;;9.02;60.10;99132.94;4355040;32;34350;-64
2022/12/23 09:14:04;;;;;;;;;;;;;;;8.85;60.66;99141.41;4355156;32;34142;-64
2022/12/23 09:16:31;;;;;;;;;;;;;;;9.08;60.03;99148.47;4346672;32;32587;-65
2022/12/23 09:18:59;;;;;;;;;;;;;;;9.31;58.88;99152.00;4361808;32;33552;-65
2022/12/23 09:21:26;;;;;;;;;;;;;;;8.97;60.60;99159.12;4361575;32;33889;-65
2022/12/23 09:23:53;;;;;;;;;;;;;;;9.66;57.86;99158.16;4360471;32;34526;-64
2022/12/23 09:26:22;;;;;;;;;;;;;;;9.74;57.18;99163.75;4360885;32;35132;-65
2022/12/23 09:28:50;;;;;;;;;;;;;;;9.38;58.53;99163.06;4358661;32;32816;-65
2022/12/23 09:31:17;;;;;;;;;;;;;;;9.44;57.47;99157.25;4346272;32;32587;-64
2022/12/23 09:33:45;;;;;;;;;;;;;;;9.37;58.35;99157.81;4356363;32;34058;-64
2022/12/23 09:36:13;;;;;;;;;;;;;;;8.66;60.08;99154.44;4348109;32;32644;-64
2022/12/23 09:38:40;;;;;;;;;;;;;;;8.68;60.50;99141.84;4359332;32;34223;-64
2022/12/23 09:41:11;;;;;;;;;;;;;;;8.33;61.58;99140.00;4357053;32;35174;-64
2022/12/23 09:43:42;;;;;;;;;;;;;;;9.05;59.72;99137.16;4348144;32;35668;-64
2022/12/23 09:46:13;;;;;;;;;;;;;;;8.83;59.85;99127.34;4358308;32;34250;-64
2022/12/23 09:48:44;;;;;;;;;;;;;;;8.57;61.16;99119.53;4361129;32;32350;-64
2022/12/23 09:51:12;;;;;;;;;;;;;;;8.66;60.75;99122.44;4359564;32;34183;-64
2022/12/23 09:53:51;;;;;;;;;;;;;;;9.49;58.15;99147.00;4349843;32;35398;-64
2022/12/23 09:56:22;;;;;;;;;;;;;;;8.50;61.35;99141.41;4358171;32;34265;-64
2022/12/23 09:58:52;;;;;;;;;;;;;;;9.66;58.47;99140.34;4342113;32;33400;-64
2022/12/23 10:01:49;;;;;;;;;;;;;;;9.55;58.78;99135.84;4344314;32;34335;-64
2022/12/23 10:04:36;;;;;;;;;;;;;;;9.27;58.69;99134.50;4337008;32;34316;-64
2022/12/23 10:07:04;;;;;;;;;;;;;;;8.97;60.24;99127.09;4340939;32;32467;-64
2022/12/23 10:09:31;;;;;;;;;;;;;;;8.06;63.55;99110.94;4358995;32;33669;-64
2022/12/23 10:11:59;;;;;;;;;;;;;;;9.22;59.56;99109.16;4357257;32;35819;-64
2022/12/23 10:14:30;;;;;;;;;;;;;;;9.91;57.55;99107.09;4349324;32;34301;-64
2022/12/23 10:16:58;;;;;;;;;;;;;;;9.94;57.23;99111.34;4359910;32;33723;-64
2022/12/23 10:19:31;;;;;;;;;;;;;;;8.59;60.44;99114.06;4352251;32;34139;-64
2022/12/23 10:22:02;;;;;;;;;;;;;;;9.67;57.81;99106.44;4343277;32;32617;-64
2022/12/23 10:24:34;;;;;;;;;;;;;;;9.28;58.94;99106.00;4348082;33;35886;-64
2022/12/23 10:27:20;;;;;;;;;;;;;;;10.12;56.88;99099.16;4351719;32;32731;-64
2022/12/23 10:29:47;;;;;;;;;;;;;;;10.20;56.58;99090.47;4361082;32;33376;-64
2022/12/23 10:32:33;;;;;;;;;;;;;;;10.10;56.03;99092.22;4359951;32;34062;-64
2022/12/23 10:35:19;;;;;;;;;;;;;;;10.35;55.04;99080.34;4355464;32;34056;-64
2022/12/23 10:37:50;;;;;;;;;;;;;;;10.20;55.92;99077.09;4358826;32;33603;-64
2022/12/23 10:40:38;;;;;;;;;;;;;;;10.01;56.75;99075.09;4348179;32;33685;-64
2022/12/23 10:43:21;;;;;;;;;;;;;;;10.13;56.36;99079.44;4332592;32;34776;-64
2022/12/23 10:45:48;;;;;;;;;;;;;;;10.02;56.78;99072.31;4357512;32;35285;-64
2022/12/23 10:48:34;;;;;;;;;;;;;;;10.04;56.86;99048.97;4358220;32;34396;-64
2022/12/23 10:51:12;;;;;;;;;;;;;;;7.61;63.69;99055.63;4349436;32;34368;-65
2022/12/23 10:53:41;;;;;;;;;;;;;;;9.75;57.95;99042.53;4350722;32;34116;-64
2022/12/23 10:56:09;;;;;;;;;;;;;;;9.66;58.31;99059.31;4358872;32;34111;-64
2022/12/23 10:58:37;;;;;;;;;;;;;;;10.00;57.71;99060.91;4357854;32;35020;-64
2022/12/23 11:01:06;;;;;;;;;;;;;;;10.51;56.11;99067.38;4343669;32;33048;-64
2022/12/23 11:03:54;;;;;;;;;;;;;;;10.15;57.34;99066.81;4359862;32;33537;-64
2022/12/23 11:06:22;;;;;;;;;;;;;;;10.36;56.20;99066.84;4354776;32;34261;-64
2022/12/23 11:08:49;;;;;;;;;;;;;;;10.38;56.54;99072.06;4346451;32;32682;-64
2022/12/23 11:11:16;;;;;;;;;;;;;;;10.03;57.49;99068.66;4353928;32;34412;-64
2022/12/23 11:13:44;;;;;;;;;;;;;;;10.63;55.91;99062.81;4355869;32;35275;-64
2022/12/23 11:16:12;;;;;;;;;;;;;;;10.62;55.72;99056.59;4359367;32;36145;-64
2022/12/23 11:18:50;;;;;;;;;;;;;;;10.41;56.47;99055.75;4343315;32;32786;-64
2022/12/23 11:21:18;;;;;;;;;;;;;;;10.84;55.22;99052.91;4353706;32;34344;-64
2022/12/23 11:23:45;;;;;;;;;;;;;;;10.86;55.13;99042.91;4360514;32;34481;-64
2022/12/23 11:26:16;;;;;;;;;;;;;;;10.73;55.39;99048.50;4357637;32;34618;-64
2022/12/23 11:28:47;;;;;;;;;;;;;;;10.79;55.44;99038.25;4350224;32;35148;-64
2022/12/23 11:31:16;;;;;;;;;;;;;;;10.81;55.39;99031.75;4352146;32;34997;-64
2022/12/23 11:33:51;;;;;;;;;;;;;;;10.92;55.37;99023.66;4356924;32;33666;-65
2022/12/23 11:36:22;;;;;;;;;;;;;;;10.91;55.38;99031.78;4353548;32;35716;-64
2022/12/23 11:39:08;;;;;;;;;;;;;;;10.85;55.54;99037.69;4355887;32;34314;-64
2022/12/23 11:41:36;;;;;;;;;;;;;;;10.94;55.44;99050.28;4353839;32;34523;-65
2022/12/23 11:44:25;;;;;;;;;;;;;;;11.14;55.05;99053.91;4359320;32;34294;-65
2022/12/23 11:46:52;;;;;;;;;;;;;;;10.39;56.91;99063.91;4352475;32;35594;-65
2022/12/23 11:49:21;;;;;;;;;;;;;;;10.47;56.59;99061.44;4358460;32;32784;-64
2022/12/23 11:52:08;;;;;;;;;;;;;;;11.13;54.86;99058.38;4352876;32;34501;-64
2022/12/23 11:54:36;;;;;;;;;;;;;;;11.19;54.73;99057.84;4342993;32;33318;-65
2022/12/23 11:57:04;;;;;;;;;;;;;;;11.15;54.69;99047.56;4358463;32;34988;-65
2022/12/23 11:59:38;;;;;;;;;;;;;;;11.37;54.30;99046.50;4353620;32;35160;-65
2022/12/23 12:02:13;;;;;;;;;;;;;;;11.10;54.97;99047.09;4355248;32;32946;-65
2022/12/23 12:04:41;;;;;;;;;;;;;;;11.48;54.15;99049.06;4357877;32;34881;-65
2022/12/23 12:07:11;;;;;;;;;;;;;;;11.36;54.61;99051.03;4344601;32;34226;-64
2022/12/23 12:09:38;;;;;;;;;;;;;;;11.55;54.23;99058.25;4340797;32;34298;-64
2022/12/23 12:12:06;;;;;;;;;;;;;;;11.50;54.34;99048.94;4341502;32;32122;-65
2022/12/23 12:14:41;;;;;;;;;;;;;;;11.29;54.99;99047.16;4347768;32;33845;-65
2022/12/23 12:17:13;;;;;;;;;;;;;;;11.52;54.40;99058.50;4358886;32;34027;-65
2022/12/23 12:20:00;;;;;;;;;;;;;;;11.63;53.86;99060.25;4344591;33;33910;-64
2022/12/23 12:22:34;;;;;;;;;;;;;;;10.88;55.45;99059.72;4354806;32;33187;-65
2022/12/23 12:25:21;;;;;;;;;;;;;;;11.62;53.81;99058.53;4364538;32;33937;-65
2022/12/23 12:27:57;;;;;;;;;;;;;;;10.60;56.64;99069.28;4356238;32;34014;-65
2022/12/23 12:30:24;;;;;;;;;;;;;;;11.24;54.66;99076.22;4343682;32;34131;-65
2022/12/23 12:32:54;;;;;;;;;;;;;;;11.32;54.06;99078.22;4343240;32;33815;-65
2022/12/23 12:35:26;;;;;;;;;;;;;;;10.97;55.42;99079.47;4356193;32;33194;-65
2022/12/23 12:37:55;;;;;;;;;;;;;;;10.99;55.59;99071.31;4358195;32;35715;-65
2022/12/23 12:40:43;;;;;;;;;;;;;;;11.05;55.66;99076.13;4343603;32;35058;-65
2022/12/23 12:43:25;;;;;;;;;;;;;;;11.18;55.50;99066.03;4347836;32;32186;-64
2022/12/23 12:46:02;;;;;;;;;;;;;;;10.93;56.36;99056.63;4358689;32;35122;-64
2022/12/23 12:48:39;;;;;;;;;;;;;;;11.12;55.74;99059.38;4343452;32;33612;-64
2022/12/23 12:51:15;;;;;;;;;;;;;;;11.53;54.41;99070.09;4351956;32;34942;-64
2022/12/23 12:54:03;;;;;;;;;;;;;;;11.37;54.68;99073.31;4358326;32;33524;-64
2022/12/23 12:56:38;;;;;;;;;;;;;;;11.28;55.16;99064.22;4359563;32;32944;-65
2022/12/23 12:59:07;;;;;;;;;;;;;;;11.32;55.22;99071.00;4353577;32;34304;-64
2022/12/23 13:01:43;;;;;;;;;;;;;;;11.29;55.46;99068.59;4346208;32;34994;-65
2022/12/23 13:04:25;;;;;;;;;;;;;;;11.47;55.13;99060.78;4360106;32;33525;-65
2022/12/23 13:06:58;;;;;;;;;;;;;;;11.41;55.37;99069.34;4361526;32;32614;-65
2022/12/23 13:09:45;;;;;;;;;;;;;;;11.43;55.21;99065.56;4359747;32;34009;-64
2022/12/23 13:12:29;;;;;;;;;;;;;;;11.65;54.79;99058.25;4355683;32;35185;-65
2022/12/23 13:14:56;;;;;;;;;;;;;;;11.24;55.62;99070.84;4357516;32;33368;-64
2022/12/23 13:17:39;;;;;;;;;;;;;;;11.60;54.89;99063.19;4354909;32;32645;-65
2022/12/23 13:20:16;;;;;;;;;;;;;;;11.58;55.10;99067.84;4358094;32;34564;-64
2022/12/23 13:22:44;;;;;;;;;;;;;;;11.77;54.47;99067.88;4359903;32;33637;-64
2022/12/23 13:25:21;;;;;;;;;;;;;;;11.73;54.63;99073.66;4346799;32;34549;-64
2022/12/23 13:27:52;;;;;;;;;;;;;;;11.77;54.65;99070.56;4357251;32;33990;-64
2022/12/23 13:30:22;;;;;;;;;;;;;;;11.92;54.05;99064.84;4354503;32;35682;-64
2022/12/23 13:32:49;;;;;;;;;;;;;;;11.97;54.03;99067.94;4357635;32;33414;-65
2022/12/23 13:35:17;;;;;;;;;;;;;;;11.60;54.89;99064.03;4358480;32;33893;-65
2022/12/23 13:38:03;;;;;;;;;;;;;;;11.81;54.83;99069.31;4354970;32;34395;-64